Main page
METAR-TAF:

METAR-TAF

Airports :

Xi'an Xianyang International Airport

Xi'an, China

latitude: 34-26N, longitude: 108-45E, elevation: 479 m

Current weather observation

The report was made 21 minutes ago, at 19:00 UTC
Wind 2 kt from the West
Temperature 19°C
Humidity 100%
Pressure 1006 hPa
Visibility: 3000 m
mist

METAR: ZLXY 181900Z 26001MPS 3000 BR NSC 19/19 Q1006 NOSIG

Time: 03:21 (19:21 UTC)

Forecast

The report was made 4 hours and 1 minutes ago, at 15:20 UTC
Forecast valid from 18 at 18 UTC to 19 at 18 UTC
Wind 6 kt from the West/Southwest
Visibility: 3000 m
mist

TAF: ZLXY 181520Z 1818/1918 24003MPS 3000 BR NSC TX31/1908Z TN17/1823Z

Weather observations and forecasts of more than 4000 airports (METAR and TAF reports).

The available stations are represented by yellow and red dots on the map.

Hover mouse over dot to see the name of the station.

Then click to see weather observations and forecasts.

To change the map : click on the green buttons with a black cross to zoom in, on the green button with a dash to zoom out, or on the green arrows for adjacent maps.


METAR-TAF: